Time;durP1;ratioP1;P1;durP2;ratioP2;P2;SDS_P1;SDS_P2;PMS_P1;PMS_P2;Temp;Humidity;BMP_temperature;BMP_pressure;BME280_temperature;BME280_humidity;BME280_pressure;Samples;Min_cycle;Max_cycle;Signal;HPM_P1;HPM_P2
2023/09/01 00:00:30;;;;;;;;;;;;;;;14.82;100.00;96323.91;5125779;28;20228;-72
2023/09/01 00:02:56;;;;;;;;;;;;;;;14.83;100.00;96325.53;5126882;28;20242;-72
2023/09/01 00:05:22;;;;;;;;;;;;;;;14.84;100.00;96319.19;5126901;28;19974;-72
2023/09/01 00:07:48;;;;;;;;;;;;;;;14.83;100.00;96330.81;5127220;28;19950;-73
2023/09/01 00:10:13;;;;;;;;;;;;;;;14.82;100.00;96332.66;5127634;28;19938;-73
2023/09/01 00:12:39;;;;;;;;;;;;;;;14.80;100.00;96332.09;5126722;28;19936;-73
2023/09/01 00:15:05;;;;;;;;;;;;;;;14.78;100.00;96328.91;5126679;28;19947;-72
2023/09/01 00:17:31;;;;;;;;;;;;;;;14.77;100.00;96334.44;5127061;28;19940;-78
2023/09/01 00:19:57;;;;;;;;;;;;;;;14.75;100.00;96328.59;5126637;28;19937;-78
2023/09/01 00:22:23;;;;;;;;;;;;;;;14.73;100.00;96328.03;5127401;28;20217;-71
2023/09/01 00:24:49;;;;;;;;;;;;;;;14.73;100.00;96341.25;5108309;28;19962;-70
2023/09/01 00:27:15;;;;;;;;;;;;;;;14.71;100.00;96330.94;5126481;28;20220;-70
2023/09/01 00:29:41;;;;;;;;;;;;;;;14.71;100.00;96340.69;5126376;28;19940;-71
2023/09/01 00:32:07;;;;;;;;;;;;;;;14.70;100.00;96345.19;5108139;28;20026;-71
2023/09/01 00:34:33;;;;;;;;;;;;;;;14.68;100.00;96334.06;5124515;28;19990;-71
2023/09/01 00:36:58;;;;;;;;;;;;;;;14.66;100.00;96333.53;5126304;28;19934;-72
2023/09/01 00:39:24;;;;;;;;;;;;;;;14.67;100.00;96340.38;5126279;28;20228;-71
2023/09/01 00:41:50;;;;;;;;;;;;;;;14.66;100.00;96335.34;5126037;28;20151;-71
2023/09/01 00:44:16;;;;;;;;;;;;;;;14.66;100.00;96337.97;5126094;28;19966;-71
2023/09/01 00:46:46;;;;;;;;;;;;;;;14.64;100.00;96338.25;5126581;28;19934;-71
2023/09/01 00:49:12;;;;;;;;;;;;;;;14.64;100.00;96337.47;5124740;28;19940;-71
2023/09/01 00:51:38;;;;;;;;;;;;;;;14.64;100.00;96330.34;5126745;28;19946;-71
2023/09/01 00:54:05;;;;;;;;;;;;;;;14.65;100.00;96337.19;5126172;28;19939;-71
2023/09/01 00:56:31;;;;;;;;;;;;;;;14.65;100.00;96331.91;5126150;28;19967;-73
2023/09/01 00:58:57;;;;;;;;;;;;;;;14.66;100.00;96343.25;5126397;28;19937;-78
2023/09/01 01:01:22;;;;;;;;;;;;;;;14.64;100.00;96332.19;5125749;28;19939;-78
2023/09/01 01:03:51;;;;;;;;;;;;;;;14.64;100.00;96335.59;5125652;28;19980;-79
2023/09/01 01:06:29;;;;;;;;;;;;;;;14.64;100.00;96334.81;5126236;28;19935;-79
2023/09/01 01:09:25;;;;;;;;;;;;;;;14.63;100.00;96336.63;5125687;28;19958;-79
2023/09/01 01:12:08;;;;;;;;;;;;;;;14.62;100.00;96332.41;5108008;28;19942;-78
2023/09/01 01:14:34;;;;;;;;;;;;;;;14.63;100.00;96335.84;5126052;28;19940;-81
2023/09/01 01:17:00;;;;;;;;;;;;;;;14.63;100.00;96331.34;5124424;28;20008;-72
2023/09/01 01:19:39;;;;;;;;;;;;;;;14.64;100.00;96334.81;5125695;28;19936;-72
2023/09/01 01:22:05;;;;;;;;;;;;;;;14.62;100.00;96337.69;5126199;28;19941;-72
2023/09/01 01:24:33;;;;;;;;;;;;;;;14.63;100.00;96330.56;5125816;28;20110;-73
2023/09/01 01:26:59;;;;;;;;;;;;;;;14.61;100.00;96334.25;5126104;28;19945;-72
2023/09/01 01:29:26;;;;;;;;;;;;;;;14.60;100.00;96327.38;5125247;28;19937;-72
2023/09/01 01:31:53;;;;;;;;;;;;;;;14.60;100.00;96332.66;5125235;28;19939;-79
2023/09/01 01:34:40;;;;;;;;;;;;;;;14.59;100.00;96335.53;5125223;28;19931;-76
2023/09/01 01:37:15;;;;;;;;;;;;;;;14.59;100.00;96330.25;5125455;28;20217;-78
2023/09/01 01:39:42;;;;;;;;;;;;;;;14.58;100.00;96334.75;5124943;28;19938;-77
2023/09/01 01:42:13;;;;;;;;;;;;;;;14.57;100.00;96334.97;5125150;28;19945;-78
2023/09/01 01:44:41;;;;;;;;;;;;;;;14.56;100.00;96331.53;5125521;28;19975;-78
2023/09/01 01:47:08;;;;;;;;;;;;;;;14.57;100.00;96329.69;5124957;28;19971;-78
2023/09/01 01:49:34;;;;;;;;;;;;;;;14.54;100.00;96323.06;5125473;28;19963;-72
2023/09/01 01:52:00;;;;;;;;;;;;;;;14.51;100.00;96328.84;5124936;28;19945;-72
2023/09/01 01:54:26;;;;;;;;;;;;;;;14.51;100.00;96328.00;5125151;28;19993;-81
2023/09/01 01:56:52;;;;;;;;;;;;;;;14.51;100.00;96322.72;5124820;28;20136;-82
2023/09/01 01:59:18;;;;;;;;;;;;;;;14.49;100.00;96317.72;5125672;28;19934;-82
2023/09/01 02:01:44;;;;;;;;;;;;;;;14.48;100.00;96315.31;5124241;28;19936;-82
2023/09/01 02:04:10;;;;;;;;;;;;;;;14.47;100.00;96319.81;5123646;28;19952;-81
2023/09/01 02:06:36;;;;;;;;;;;;;;;14.47;100.00;96308.44;5124460;28;19938;-81
2023/09/01 02:09:03;;;;;;;;;;;;;;;14.47;100.00;96314.53;5124705;28;20305;-72
2023/09/01 02:11:29;;;;;;;;;;;;;;;14.48;100.00;96325.88;5125222;28;20206;-76
2023/09/01 02:13:55;;;;;;;;;;;;;;;14.49;100.00;96317.72;5125246;28;20115;-76
2023/09/01 02:16:23;;;;;;;;;;;;;;;14.48;100.00;96315.31;5125481;28;20093;-76
2023/09/01 02:18:49;;;;;;;;;;;;;;;14.46;100.00;96333.25;5124601;28;19945;-76
2023/09/01 02:21:19;;;;;;;;;;;;;;;14.45;100.00;96335.09;5124709;28;19941;-76
2023/09/01 02:23:46;;;;;;;;;;;;;;;14.45;100.00;96331.63;5125342;28;19948;-76
2023/09/01 02:26:18;;;;;;;;;;;;;;;14.47;100.00;96332.19;5125087;28;19948;-76
2023/09/01 02:28:44;;;;;;;;;;;;;;;14.48;100.00;96337.22;5124486;28;19935;-71
2023/09/01 02:31:10;;;;;;;;;;;;;;;14.49;100.00;96338.84;5125057;28;19935;-71
2023/09/01 02:33:36;;;;;;;;;;;;;;;14.50;100.00;96336.97;5124512;28;19934;-71
2023/09/01 02:36:21;;;;;;;;;;;;;;;14.50;100.00;96343.06;5125022;28;19939;-71
2023/09/01 02:38:46;;;;;;;;;;;;;;;14.51;100.00;96338.56;5124486;28;19929;-71
2023/09/01 02:41:12;;;;;;;;;;;;;;;14.52;100.00;96338.31;5124241;28;19972;-71
2023/09/01 02:43:38;;;;;;;;;;;;;;;14.51;100.00;96336.75;5124818;28;19958;-71
2023/09/01 02:46:04;;;;;;;;;;;;;;;14.53;100.00;96334.66;5124430;28;19938;-76
2023/09/01 02:48:30;;;;;;;;;;;;;;;14.53;100.00;96336.47;5124915;28;19933;-71
2023/09/01 02:50:58;;;;;;;;;;;;;;;14.54;100.00;96330.16;5124351;28;19937;-71
2023/09/01 02:53:24;;;;;;;;;;;;;;;14.52;100.00;96337.53;5124905;28;19935;-71
2023/09/01 02:55:50;;;;;;;;;;;;;;;14.52;100.00;96334.91;5124021;28;20224;-71
2023/09/01 02:58:16;;;;;;;;;;;;;;;14.50;100.00;96331.72;5126750;28;19934;-71
2023/09/01 03:00:44;;;;;;;;;;;;;;;14.49;100.00;96333.56;5128140;28;20224;-70
2023/09/01 03:03:10;;;;;;;;;;;;;;;14.48;100.00;96331.16;5127772;28;19941;-77
2023/09/01 03:05:36;;;;;;;;;;;;;;;14.44;100.00;96335.31;5128854;28;19946;-79
2023/09/01 03:08:02;;;;;;;;;;;;;;;14.40;100.00;96333.19;5128188;28;19955;-72
2023/09/01 03:10:28;;;;;;;;;;;;;;;14.41;100.00;96339.25;5128807;28;19948;-72
2023/09/01 03:12:54;;;;;;;;;;;;;;;14.41;100.00;96337.41;5128484;28;19934;-72
2023/09/01 03:15:20;;;;;;;;;;;;;;;14.43;100.00;96352.22;5127803;28;19933;-72
2023/09/01 03:17:45;;;;;;;;;;;;;;;14.43;100.00;96347.72;5127795;28;20189;-72
2023/09/01 03:20:12;;;;;;;;;;;;;;;14.44;100.00;96344.03;5128314;28;19945;-72
2023/09/01 03:22:38;;;;;;;;;;;;;;;14.45;100.00;96344.81;5126511;28;19936;-73
2023/09/01 03:25:09;;;;;;;;;;;;;;;14.45;100.00;96343.00;5127834;28;19960;-71
2023/09/01 03:27:41;;;;;;;;;;;;;;;14.48;100.00;96344.34;5128471;28;19938;-71
2023/09/01 03:30:07;;;;;;;;;;;;;;;14.46;100.00;96343.78;5128141;28;20131;-70
2023/09/01 03:32:33;;;;;;;;;;;;;;;14.47;100.00;96340.09;5127549;28;19939;-71
2023/09/01 03:34:59;;;;;;;;;;;;;;;14.47;100.00;96333.00;5127523;28;19960;-71
2023/09/01 03:37:25;;;;;;;;;;;;;;;14.46;100.00;96336.66;5128034;28;19957;-71
2023/09/01 03:39:51;;;;;;;;;;;;;;;14.46;100.00;96336.66;5127191;28;19935;-72
2023/09/01 03:42:17;;;;;;;;;;;;;;;14.45;100.00;96334.25;5128204;28;19951;-78
2023/09/01 03:44:43;;;;;;;;;;;;;;;14.44;100.00;96327.41;5127266;28;19958;-79
2023/09/01 03:47:09;;;;;;;;;;;;;;;14.42;100.00;96335.56;5128079;28;19946;-79
2023/09/01 03:49:35;;;;;;;;;;;;;;;14.40;100.00;96335.00;5127207;28;19932;-79
2023/09/01 03:52:01;;;;;;;;;;;;;;;14.37;100.00;96336.28;5127243;28;19941;-78
2023/09/01 03:54:27;;;;;;;;;;;;;;;14.33;100.00;96332.56;5126035;28;19935;-78
2023/09/01 03:56:54;;;;;;;;;;;;;;;14.31;100.00;96324.09;5127065;28;20241;-78
2023/09/01 03:59:19;;;;;;;;;;;;;;;14.30;100.00;96333.06;5127046;28;19932;-71
2023/09/01 04:01:46;;;;;;;;;;;;;;;14.27;100.00;96333.53;5127520;28;19935;-76
2023/09/01 04:04:12;;;;;;;;;;;;;;;14.26;100.00;96334.56;5127420;28;19953;-76
2023/09/01 04:06:39;;;;;;;;;;;;;;;14.25;100.00;96340.88;5127394;28;19940;-76
2023/09/01 04:09:05;;;;;;;;;;;;;;;14.25;100.00;96340.88;5126464;28;19953;-76
2023/09/01 04:11:31;;;;;;;;;;;;;;;14.24;100.00;96334.03;5126782;28;19935;-76
2023/09/01 04:13:57;;;;;;;;;;;;;;;14.23;100.00;96336.91;5127590;28;19948;-76
2023/09/01 04:16:23;;;;;;;;;;;;;;;14.22;100.00;96346.66;5127216;28;19945;-76
2023/09/01 04:18:49;;;;;;;;;;;;;;;14.25;100.00;96353.28;5126689;28;19941;-71
2023/09/01 04:21:15;;;;;;;;;;;;;;;14.24;100.00;96352.50;5125534;28;20182;-76
2023/09/01 04:23:41;;;;;;;;;;;;;;;14.25;100.00;96348.00;5126997;28;19937;-76
2023/09/01 04:26:07;;;;;;;;;;;;;;;14.24;100.00;96355.13;5127028;28;19939;-77
2023/09/01 04:28:33;;;;;;;;;;;;;;;14.26;100.00;96354.84;5126988;28;19937;-76
2023/09/01 04:31:00;;;;;;;;;;;;;;;14.26;100.00;96349.59;5126452;28;19941;-76
2023/09/01 04:33:26;;;;;;;;;;;;;;;14.25;100.00;96348.78;5126613;28;19946;-76
2023/09/01 04:36:03;;;;;;;;;;;;;;;14.26;100.00;96349.59;5126837;28;19941;-72
2023/09/01 04:38:29;;;;;;;;;;;;;;;14.26;100.00;96345.13;5108876;28;19946;-72
2023/09/01 04:40:55;;;;;;;;;;;;;;;14.27;100.00;96349.34;5125994;28;19963;-73
2023/09/01 04:43:21;;;;;;;;;;;;;;;14.28;100.00;96345.69;5126703;28;19949;-72
2023/09/01 04:45:47;;;;;;;;;;;;;;;14.29;100.00;96347.25;5126023;28;19957;-73
2023/09/01 04:48:13;;;;;;;;;;;;;;;14.30;100.00;96342.78;5126051;28;20248;-72
2023/09/01 04:50:40;;;;;;;;;;;;;;;14.29;100.00;96347.25;5126577;28;19946;-73
2023/09/01 04:53:06;;;;;;;;;;;;;;;14.30;100.00;96343.59;5126000;28;19946;-72
2023/09/01 04:55:31;;;;;;;;;;;;;;;14.32;100.00;96349.44;5126437;28;19933;-76
2023/09/01 04:57:57;;;;;;;;;;;;;;;14.34;100.00;96350.00;5125864;28;19939;-79
2023/09/01 05:00:23;;;;;;;;;;;;;;;14.36;100.00;96350.53;5125715;28;20001;-79
2023/09/01 05:02:50;;;;;;;;;;;;;;;14.39;100.00;96351.88;5126283;28;19944;-79
2023/09/01 05:05:16;;;;;;;;;;;;;;;14.43;100.00;96354.84;5126493;28;19957;-80
2023/09/01 05:07:42;;;;;;;;;;;;;;;14.45;100.00;96356.19;5125596;28;19950;-79
2023/09/01 05:10:08;;;;;;;;;;;;;;;14.48;100.00;96360.19;5126131;28;19944;-79
2023/09/01 05:12:34;;;;;;;;;;;;;;;14.50;100.00;96360.72;5125547;28;19937;-73
2023/09/01 05:15:00;;;;;;;;;;;;;;;14.53;100.00;96363.69;5126096;28;19937;-82
2023/09/01 05:17:26;;;;;;;;;;;;;;;14.56;100.00;96359.78;5126312;28;20201;-71
2023/09/01 05:19:52;;;;;;;;;;;;;;;14.56;100.00;96365.84;5124516;28;19940;-71
2023/09/01 05:22:18;;;;;;;;;;;;;;;14.59;100.00;96367.19;5125445;28;20139;-72
2023/09/01 05:24:46;;;;;;;;;;;;;;;14.61;100.00;96373.03;5125268;28;19960;-72
2023/09/01 05:27:12;;;;;;;;;;;;;;;14.64;100.00;96384.97;5125312;28;19935;-72
2023/09/01 05:29:38;;;;;;;;;;;;;;;14.64;100.00;96382.31;5125798;28;19973;-72
2023/09/01 05:32:04;;;;;;;;;;;;;;;14.64;100.00;96377.84;5125242;28;20007;-70
2023/09/01 05:34:30;;;;;;;;;;;;;;;14.66;100.00;96378.38;5125257;28;19981;-72
2023/09/01 05:36:57;;;;;;;;;;;;;;;14.67;100.00;96379.97;5125114;28;19936;-72
2023/09/01 05:39:23;;;;;;;;;;;;;;;14.69;100.00;96385.00;5125690;28;19929;-72
2023/09/01 05:41:49;;;;;;;;;;;;;;;14.71;100.00;96381.06;5124965;28;20005;-72
2023/09/01 05:44:15;;;;;;;;;;;;;;;14.74;100.00;96385.06;5125510;28;19958;-72
2023/09/01 05:46:41;;;;;;;;;;;;;;;14.74;100.00;96385.88;5124986;28;20003;-72
2023/09/01 05:49:07;;;;;;;;;;;;;;;14.77;100.00;96379.31;5124992;28;20229;-73
2023/09/01 05:51:32;;;;;;;;;;;;;;;14.78;100.00;96378.25;5124979;28;19934;-83
2023/09/01 05:53:58;;;;;;;;;;;;;;;14.80;100.00;96384.91;5124958;28;19936;-77
2023/09/01 05:56:24;;;;;;;;;;;;;;;14.83;100.00;96386.25;5124914;28;19941;-76
2023/09/01 05:58:50;;;;;;;;;;;;;;;14.85;100.00;96388.66;5124845;28;19935;-76
2023/09/01 06:01:16;;;;;;;;;;;;;;;14.87;100.00;96389.19;5125392;28;19938;-78
2023/09/01 06:03:42;;;;;;;;;;;;;;;14.89;100.00;96390.53;5125323;28;19946;-76
2023/09/01 06:06:07;;;;;;;;;;;;;;;14.93;100.00;96394.28;5124698;28;20017;-77
2023/09/01 06:08:33;;;;;;;;;;;;;;;14.97;100.00;96391.94;5124575;28;19947;-72
2023/09/01 06:11:03;;;;;;;;;;;;;;;15.00;100.00;96397.53;5125292;28;20002;-71
2023/09/01 06:13:29;;;;;;;;;;;;;;;15.04;100.00;96403.13;5125530;28;19938;-70
2023/09/01 06:15:55;;;;;;;;;;;;;;;15.08;100.00;96403.44;5125193;28;19981;-71
2023/09/01 06:18:20;;;;;;;;;;;;;;;15.11;100.00;96402.94;5124662;28;20036;-71
2023/09/01 06:20:46;;;;;;;;;;;;;;;15.15;100.00;96406.66;5125437;28;19934;-71
2023/09/01 06:23:12;;;;;;;;;;;;;;;15.17;100.00;96400.09;5125193;28;19992;-71
2023/09/01 06:25:38;;;;;;;;;;;;;;;15.19;100.00;96400.63;5123948;28;19978;-71
2023/09/01 06:28:04;;;;;;;;;;;;;;;15.22;100.00;96409.91;5123451;28;20108;-80
2023/09/01 06:30:29;;;;;;;;;;;;;;;15.26;100.00;96415.50;5125358;28;19930;-81
2023/09/01 06:32:55;;;;;;;;;;;;;;;15.29;100.00;96405.25;5128272;28;19935;-80
2023/09/01 06:35:21;;;;;;;;;;;;;;;15.35;100.00;96411.34;5129245;28;20203;-81
2023/09/01 06:37:47;;;;;;;;;;;;;;;15.39;100.00;96400.06;5127567;28;19936;-81
2023/09/01 06:40:13;;;;;;;;;;;;;;;15.46;100.00;96404.34;5127333;28;19963;-81
2023/09/01 06:42:39;;;;;;;;;;;;;;;15.53;100.00;96421.59;5127393;28;19950;-81
2023/09/01 06:45:05;;;;;;;;;;;;;;;15.61;100.00;96423.78;5128010;28;20006;-71
2023/09/01 06:47:31;;;;;;;;;;;;;;;15.68;100.00;96425.44;5110289;28;19947;-72
2023/09/01 06:49:57;;;;;;;;;;;;;;;15.73;100.00;96418.38;5128448;28;20268;-72
2023/09/01 06:52:22;;;;;;;;;;;;;;;15.77;100.00;96413.38;5128390;28;19962;-72
2023/09/01 06:54:50;;;;;;;;;;;;;;;15.83;100.00;96415.00;5128273;28;19940;-72
2023/09/01 06:57:18;;;;;;;;;;;;;;;15.89;100.00;96418.50;5127133;28;19946;-72
2023/09/01 06:59:44;;;;;;;;;;;;;;;15.95;100.00;96425.44;5126954;28;19948;-72
2023/09/01 07:02:10;;;;;;;;;;;;;;;15.97;100.00;96425.97;5128164;28;19943;-72
2023/09/01 07:04:36;;;;;;;;;;;;;;;15.97;100.00;96432.06;5128093;28;19973;-74
2023/09/01 07:07:02;;;;;;;;;;;;;;;15.97;100.00;96426.75;5128020;28;19954;-72
2023/09/01 07:09:28;;;;;;;;;;;;;;;16.02;100.00;96418.06;5128263;28;20124;-72
2023/09/01 07:11:54;;;;;;;;;;;;;;;16.11;100.00;96429.78;5127943;28;19942;-72
2023/09/01 07:14:19;;;;;;;;;;;;;;;16.18;100.00;96424.28;5127910;28;19974;-72
2023/09/01 07:16:45;;;;;;;;;;;;;;;16.20;100.00;96430.91;5128076;28;19940;-73
2023/09/01 07:19:11;;;;;;;;;;;;;;;16.27;100.00;96429.91;5127857;28;19936;-73
2023/09/01 07:21:37;;;;;;;;;;;;;;;16.38;100.00;96431.56;5127472;28;20222;-77
2023/09/01 07:24:03;;;;;;;;;;;;;;;16.56;100.00;96430.34;5128517;28;19997;-73
2023/09/01 07:26:29;;;;;;;;;;;;;;;16.77;100.00;96429.38;5126491;28;19955;-73
2023/09/01 07:28:55;;;;;;;;;;;;;;;16.96;100.00;96423.69;5128163;28;19947;-72
2023/09/01 07:31:20;;;;;;;;;;;;;;;17.03;100.00;96426.91;5127623;28;19940;-72
2023/09/01 07:33:46;;;;;;;;;;;;;;;17.04;100.00;96426.63;5126279;28;19952;-73
2023/09/01 07:36:12;;;;;;;;;;;;;;;17.01;100.00;96418.41;5128352;28;19936;-73
2023/09/01 07:38:38;;;;;;;;;;;;;;;16.93;100.00;96425.00;5127933;28;19976;-73
2023/09/01 07:41:04;;;;;;;;;;;;;;;16.88;100.00;96434.78;5127297;28;20243;-73
2023/09/01 07:43:30;;;;;;;;;;;;;;;16.83;100.00;96433.69;5126657;28;20241;-77
2023/09/01 07:45:57;;;;;;;;;;;;;;;16.80;100.00;96438.69;5127804;28;20257;-78
2023/09/01 07:48:22;;;;;;;;;;;;;;;16.80;100.00;96438.69;5127002;28;19940;-78
2023/09/01 07:50:49;;;;;;;;;;;;;;;16.81;100.00;96433.16;5128033;28;19937;-77
2023/09/01 07:53:15;;;;;;;;;;;;;;;16.84;100.00;96437.94;5127161;28;19947;-77
2023/09/01 07:55:41;;;;;;;;;;;;;;;16.84;100.00;96435.31;5127946;28;20142;-77
2023/09/01 07:58:07;;;;;;;;;;;;;;;16.88;100.00;96437.41;5126612;28;20109;-81
2023/09/01 08:00:33;;;;;;;;;;;;;;;16.91;100.00;96440.34;5126824;28;19938;-77
2023/09/01 08:02:59;;;;;;;;;;;;;;;16.97;100.00;96444.63;5127030;28;19945;-73
2023/09/01 08:05:25;;;;;;;;;;;;;;;17.03;100.00;96442.81;5109554;28;19962;-72
2023/09/01 08:07:53;;;;;;;;;;;;;;;17.08;100.00;96444.66;5127120;28;19982;-72
2023/09/01 08:10:19;;;;;;;;;;;;;;;17.13;100.00;96448.13;5125673;28;19948;-73
2023/09/01 08:12:45;;;;;;;;;;;;;;;17.17;100.00;96445.75;5127363;28;19936;-73
2023/09/01 08:15:11;;;;;;;;;;;;;;;17.19;100.00;96447.09;5126758;28;19932;-73
2023/09/01 08:17:37;;;;;;;;;;;;;;;17.23;100.00;96456.09;5127250;28;20011;-72
2023/09/01 08:20:04;;;;;;;;;;;;;;;17.25;100.00;96447.91;5127547;28;19946;-71
2023/09/01 08:22:32;;;;;;;;;;;;;;;17.27;100.00;96452.94;5127101;28;20213;-71
2023/09/01 08:24:58;;;;;;;;;;;;;;;17.32;100.00;96450.31;5126156;28;19952;-72
2023/09/01 08:27:25;;;;;;;;;;;;;;;17.37;100.00;96459.06;5127083;28;19965;-71
2023/09/01 08:29:51;;;;;;;;;;;;;;;17.45;100.00;96455.13;5126400;28;20127;-70
2023/09/01 08:32:17;;;;;;;;;;;;;;;17.51;100.00;96459.38;5127248;28;19946;-71
2023/09/01 08:34:43;;;;;;;;;;;;;;;17.57;100.00;96463.63;5126911;28;19942;-73
2023/09/01 08:37:10;;;;;;;;;;;;;;;17.61;100.00;96462.03;5126362;28;19929;-79
2023/09/01 08:39:36;;;;;;;;;;;;;;;17.64;100.00;96455.44;5126266;28;19993;-79
2023/09/01 08:42:02;;;;;;;;;;;;;;;17.72;100.00;96456.75;5126248;28;19944;-79
2023/09/01 08:44:29;;;;;;;;;;;;;;;17.82;100.00;96459.44;5126082;28;19999;-78
2023/09/01 08:46:57;;;;;;;;;;;;;;;17.97;100.00;96458.69;5108658;28;19962;-79
2023/09/01 08:49:25;;;;;;;;;;;;;;;18.13;100.00;96456.84;5126587;28;19944;-79
2023/09/01 08:51:55;;;;;;;;;;;;;;;18.28;100.00;96448.84;5125966;28;19935;-79
2023/09/01 08:54:21;;;;;;;;;;;;;;;18.36;100.00;96445.66;5124393;28;20219;-79
2023/09/01 08:56:48;;;;;;;;;;;;;;;18.45;100.00;96437.94;5125484;28;19941;-81
2023/09/01 08:59:13;;;;;;;;;;;;;;;18.50;100.00;96434.47;5126434;28;19936;-81
2023/09/01 09:01:39;;;;;;;;;;;;;;;18.50;100.00;96451.22;5126332;28;19952;-81
2023/09/01 09:04:06;;;;;;;;;;;;;;;18.44;100.00;96442.47;5124708;28;19943;-81
2023/09/01 09:06:36;;;;;;;;;;;;;;;18.46;100.00;96472.22;5125677;28;19961;-81
2023/09/01 09:09:11;;;;;;;;;;;;;;;18.47;100.00;96457.06;5124459;28;20242;-81
2023/09/01 09:11:38;;;;;;;;;;;;;;;18.49;100.00;96462.13;5125619;28;19945;-71
2023/09/01 09:14:04;;;;;;;;;;;;;;;18.50;100.00;96456.53;5124581;28;19944;-71
2023/09/01 09:16:30;;;;;;;;;;;;;;;18.55;100.00;96447.78;5126067;28;19936;-77
2023/09/01 09:18:56;;;;;;;;;;;;;;;18.60;100.00;96450.41;5126059;28;20046;-77
2023/09/01 09:21:29;;;;;;;;;;;;;;;18.66;100.00;96458.09;5125392;28;19948;-77
2023/09/01 09:23:56;;;;;;;;;;;;;;;18.75;100.00;96447.72;5126188;28;20120;-77
2023/09/01 09:26:25;;;;;;;;;;;;;;;18.77;100.00;96442.94;5125198;28;20143;-77
2023/09/01 09:28:51;;;;;;;;;;;;;;;18.81;100.00;96449.31;5126066;28;20214;-77
2023/09/01 09:31:17;;;;;;;;;;;;;;;18.85;100.00;96446.91;5125150;28;20015;-71
2023/09/01 09:33:44;;;;;;;;;;;;;;;18.86;100.00;96445.88;5125941;28;20005;-71
2023/09/01 09:36:10;;;;;;;;;;;;;;;18.91;100.00;96459.13;5125357;28;20118;-71
2023/09/01 09:38:43;;;;;;;;;;;;;;;18.91;100.00;96451.16;5125152;28;19950;-71
2023/09/01 09:41:09;;;;;;;;;;;;;;;18.86;100.00;96449.31;5124892;28;20154;-71
2023/09/01 09:43:48;;;;;;;;;;;;;;;18.84;100.00;96462.06;5124475;28;19941;-71
2023/09/01 09:46:14;;;;;;;;;;;;;;;18.83;100.00;96460.47;5125502;28;19963;-71
2023/09/01 09:48:41;;;;;;;;;;;;;;;18.82;100.00;96458.09;5124938;28;19938;-72
2023/09/01 09:51:07;;;;;;;;;;;;;;;18.83;100.00;96465.00;5124906;28;19933;-81
2023/09/01 09:53:34;;;;;;;;;;;;;;;18.85;100.00;96450.38;5125375;28;20221;-73
2023/09/01 09:56:13;;;;;;;;;;;;;;;18.93;100.00;96462.31;5125048;28;19945;-74
2023/09/01 09:58:39;;;;;;;;;;;;;;;19.03;100.00;96454.31;5125355;28;19941;-73
2023/09/01 10:01:19;;;;;;;;;;;;;;;19.11;100.00;96466.25;5125528;28;19939;-73
2023/09/01 10:03:46;;;;;;;;;;;;;;;19.23;100.00;96465.91;5124693;28;19942;-74
2023/09/01 10:06:13;;;;;;;;;;;;;;;19.30;100.00;96450.47;5124350;28;19959;-73
2023/09/01 10:08:39;;;;;;;;;;;;;;;19.40;100.00;96454.94;5124651;28;19959;-78
2023/09/01 10:11:06;;;;;;;;;;;;;;;19.45;100.00;96446.94;5124621;28;20118;-72
2023/09/01 10:13:32;;;;;;;;;;;;;;;19.50;100.00;96444.25;5125466;28;19939;-71
2023/09/01 10:15:59;;;;;;;;;;;;;;;19.66;100.00;96452.94;5124501;28;19938;-71
2023/09/01 10:18:26;;;;;;;;;;;;;;;19.80;100.00;96429.19;5124493;28;19933;-72
2023/09/01 10:20:52;;;;;;;;;;;;;;;19.92;100.00;96442.94;5125143;28;20090;-71
2023/09/01 10:23:19;;;;;;;;;;;;;;;20.00;100.00;96412.28;5124317;28;19944;-71
2023/09/01 10:26:03;;;;;;;;;;;;;;;20.09;100.00;96434.53;5124461;28;19967;-78
2023/09/01 10:28:29;;;;;;;;;;;;;;;20.16;100.00;96421.72;5124199;28;19944;-71
2023/09/01 10:31:15;;;;;;;;;;;;;;;20.17;100.00;96422.50;5124513;28;19939;-71
2023/09/01 10:33:41;;;;;;;;;;;;;;;20.17;100.00;96410.00;5124406;28;19950;-71
2023/09/01 10:36:12;;;;;;;;;;;;;;;20.20;100.00;96425.41;5124465;28;19937;-71
2023/09/01 10:38:38;;;;;;;;;;;;;;;20.21;100.00;96412.91;5124984;28;19936;-72
2023/09/01 10:41:04;;;;;;;;;;;;;;;20.16;100.00;96413.75;5124464;28;19983;-71
2023/09/01 10:43:35;;;;;;;;;;;;;;;20.18;100.00;96422.25;5124419;28;19963;-77
2023/09/01 10:46:17;;;;;;;;;;;;;;;20.25;100.00;96420.03;5124568;28;19955;-72
2023/09/01 10:48:48;;;;;;;;;;;;;;;20.38;100.00;96431.13;5125151;28;19946;-79
2023/09/01 10:51:16;;;;;;;;;;;;;;;20.50;100.00;96431.53;5124321;28;19944;-79
2023/09/01 10:53:42;;;;;;;;;;;;;;;20.59;100.00;96416.53;5124271;28;19938;-79
2023/09/01 10:56:09;;;;;;;;;;;;;;;20.64;100.00;96427.16;5125097;28;20150;-79
2023/09/01 10:58:44;;;;;;;;;;;;;;;20.63;100.00;96406.91;5124301;28;19936;-79
2023/09/01 11:01:31;;;;;;;;;;;;;;;20.70;100.00;96419.88;5124226;28;20245;-79
2023/09/01 11:04:15;;;;;;;;;;;;;;;20.79;100.00;96390.72;5125053;28;19941;-76
2023/09/01 11:06:56;;;;;;;;;;;;;;;20.90;97.84;96373.56;5124129;28;19955;-73
2023/09/01 11:09:23;;;;;;;;;;;;;;;21.01;100.00;96398.22;5123802;28;19939;-73
2023/09/01 11:11:49;;;;;;;;;;;;;;;21.13;99.20;96387.94;5124142;28;19952;-73
2023/09/01 11:14:20;;;;;;;;;;;;;;;21.24;96.87;96377.91;5124973;28;19934;-73
2023/09/01 11:16:46;;;;;;;;;;;;;;;21.28;94.54;96361.03;5124074;28;20124;-73
2023/09/01 11:19:12;;;;;;;;;;;;;;;21.22;97.36;96382.75;5126864;28;19938;-73
2023/09/01 11:21:40;;;;;;;;;;;;;;;21.14;97.28;96380.72;5127499;28;19934;-79
2023/09/01 11:24:07;;;;;;;;;;;;;;;21.18;98.84;96403.84;5127823;28;19934;-73
2023/09/01 11:26:32;;;;;;;;;;;;;;;21.31;98.07;96393.56;5127636;28;20249;-73
2023/09/01 11:28:58;;;;;;;;;;;;;;;21.38;99.56;96394.00;5127664;28;19933;-73
2023/09/01 11:31:36;;;;;;;;;;;;;;;21.52;94.61;96368.19;5127897;28;19941;-73
2023/09/01 11:34:01;;;;;;;;;;;;;;;21.56;94.01;96357.75;5128115;28;19942;-74
2023/09/01 11:36:27;;;;;;;;;;;;;;;21.51;94.35;96371.19;5127550;28;19996;-73
2023/09/01 11:38:53;;;;;;;;;;;;;;;21.60;95.53;96372.09;5128329;28;20078;-71
2023/09/01 11:41:20;;;;;;;;;;;;;;;21.82;92.12;96350.13;5126200;28;19967;-81
2023/09/01 11:43:46;;;;;;;;;;;;;;;21.87;92.23;96353.50;5127345;28;19969;-79
2023/09/01 11:46:12;;;;;;;;;;;;;;;21.87;93.37;96363.38;5127277;28;19955;-79
2023/09/01 11:48:38;;;;;;;;;;;;;;;21.93;92.69;96351.53;5127458;28;19938;-80
2023/09/01 11:51:10;;;;;;;;;;;;;;;22.06;90.30;96332.06;5127225;28;19963;-79
2023/09/01 11:53:36;;;;;;;;;;;;;;;22.25;84.92;96312.56;5127720;28;19941;-78
2023/09/01 11:56:19;;;;;;;;;;;;;;;22.45;83.77;96306.03;5127694;28;19935;-80
2023/09/01 11:58:45;;;;;;;;;;;;;;;22.69;85.23;96309.25;5127070;28;20144;-78
2023/09/01 12:01:12;;;;;;;;;;;;;;;23.03;89.33;96336.69;5127074;28;19946;-76
2023/09/01 12:03:38;;;;;;;;;;;;;;;23.13;83.90;96306.25;5126986;28;19942;-79
2023/09/01 12:06:14;;;;;;;;;;;;;;;23.15;84.79;96309.41;5127195;28;19955;-77
2023/09/01 12:08:40;;;;;;;;;;;;;;;23.32;85.21;96319.47;5126830;28;19960;-77
2023/09/01 12:11:06;;;;;;;;;;;;;;;23.54;80.86;96289.22;5127406;28;19934;-76
2023/09/01 12:13:32;;;;;;;;;;;;;;;23.58;78.93;96293.69;5126847;28;19932;-76
2023/09/01 12:15:59;;;;;;;;;;;;;;;23.56;78.34;96305.78;5126770;28;19936;-76
2023/09/01 12:18:28;;;;;;;;;;;;;;;23.44;80.70;96331.22;5126743;28;19942;-72
2023/09/01 12:20:54;;;;;;;;;;;;;;;23.22;77.38;96347.22;5126658;28;19947;-73
2023/09/01 12:23:26;;;;;;;;;;;;;;;22.99;80.99;96379.25;5125550;28;19938;-73
2023/09/01 12:25:52;;;;;;;;;;;;;;;22.77;81.37;96376.50;5127059;28;19963;-72
2023/09/01 12:28:18;;;;;;;;;;;;;;;22.68;86.98;96389.78;5127066;28;19945;-73
2023/09/01 12:30:44;;;;;;;;;;;;;;;22.64;84.28;96389.56;5126773;28;20004;-73
2023/09/01 12:33:10;;;;;;;;;;;;;;;22.59;85.52;96392.31;5108335;28;19939;-73
2023/09/01 12:35:36;;;;;;;;;;;;;;;22.53;87.24;96404.19;5127254;28;19941;-72
2023/09/01 12:38:02;;;;;;;;;;;;;;;22.43;86.70;96391.84;5126929;28;19944;-81